Terminal Aerodrome Forecast
Issued by NWS Boston, MA

Home | Current Version | Previous Version | Text Only | Print | Product List | Glossary On
Versions: 1 2 3 4 5 6 7 8 9 10 11 12 13 14 15 16 17 18 19 20 21 22 23 24 25 26 27 28 29 30 31 32 33 34 35 36 37 38 39 40 41 42 43 44 45
000
FTUS41 KBOX 281739
TAFBOS
TAF
KBOS 281739Z 2818/2924 12008KT P6SM SCT050
     FM290000 16006KT P6SM FEW250
     FM290200 22006KT P6SM FEW250
     FM290700 24006KT P6SM FEW250
     FM291700 16006KT P6SM SCT250
     FM292300 20009KT P6SM SCT200=

USA.gov is the U.S. government's official web portal to all federal, state and local government web resources and services.